Terminal Aerodrome Forecast
Issued by NWS Bismarck, ND

Home | Current Version | Previous Version | Graphics & Text | Print | Product List | Glossary On
Versions: 1 2 3 4 5 6 7 8 9 10 11 12 13 14 15 16 17 18 19
426
FTUS43 KBIS 211455 AAC
TAFBIS
TAF AMD
KBIS 211455Z 2115/2212 09005KT 1/4SM FG OVC002
     FM211600 15006KT 6SM BR FEW015
     FM211800 17007KT P6SM SCT050
     FM220100 18006KT P6SM SKC=

USA.gov is the U.S. government's official web portal to all federal, state and local government web resources and services.